CheckWX is a tool to help pilots better visualize weather data.  It is not intended as a substitute for an official pre-flight weather briefing.

09:14:46 UTC

KTZR METAR
Bolton Field Airport
Columbus, Ohio, USA
Current

40 mins ago

KTZR 210835Z AUTO 00000KT 7SM CLR 19/18 A3020 RMK AO2 T01890183 PWINO TSNO
Observed
Sep-21 @ 08:35 UTC
Visibility
7 SM
Flight Rules
VFR
Cloud Levels
  • Clear skies
Temperature
19°C / 66°F
Dewpoint
18°C / 64°F
Humidity
94%
Altimeter
30.2" Hg
Pressure
1022.72 hPa
Previous

60 mins ago

KTZR 210815Z AUTO 23003KT 7SM CLR 18/18 A3019 RMK AO2 T01820178 PWINO TSNO
Observed
Sep-21 @ 08:15 UTC
Wind
  • 230° at 3 KTS
Visibility
7 SM
Flight Rules
VFR
Cloud Levels
  • Clear skies
Temperature
18°C / 64°F
Dewpoint
18°C / 64°F
Humidity
100%
Altimeter
30.19" Hg
Pressure
1022.32 hPa
Previous

1 hour ago

KTZR 210755Z AUTO 00000KT 7SM CLR 19/18 A3020 RMK AO2 T01860181 PWINO TSNO
Observed
Sep-21 @ 07:55 UTC
Visibility
7 SM
Flight Rules
VFR
Cloud Levels
  • Clear skies
Temperature
19°C / 66°F
Dewpoint
18°C / 64°F
Humidity
94%
Altimeter
30.2" Hg
Pressure
1022.72 hPa